Time;durP1;ratioP1;P1;durP2;ratioP2;P2;SDS_P1;SDS_P2;PMS_P1;PMS_P2;Temp;Humidity;BMP_temperature;BMP_pressure;BME280_temperature;BME280_humidity;BME280_pressure;Samples;Min_cycle;Max_cycle;Signal;HPM_P1;HPM_P2
2023/01/06 00:01:15;;;;;;;1.00;0.90;;;12.40;99.90;;;;;;7390567;19;20139;-71
2023/01/06 00:03:41;;;;;;;1.05;0.70;;;12.30;99.90;;;;;;7390658;19;20138;-71
2023/01/06 00:06:09;;;;;;;1.50;0.80;;;12.30;99.90;;;;;;7392371;19;20471;-71
2023/01/06 00:08:35;;;;;;;0.87;0.73;;;12.10;99.90;;;;;;7393590;19;20141;-72
2023/01/06 00:11:06;;;;;;;1.43;0.90;;;12.20;99.90;;;;;;7390098;19;20153;-72
2023/01/06 00:13:32;;;;;;;1.83;1.00;;;12.20;99.90;;;;;;7390864;19;20141;-72
2023/01/06 00:16:06;;;;;;;1.53;0.83;;;12.20;99.90;;;;;;7390074;19;20504;-73
2023/01/06 00:18:32;;;;;;;0.90;0.77;;;12.10;99.90;;;;;;7390725;19;20159;-72
2023/01/06 00:20:59;;;;;;;1.13;0.82;;;12.20;99.90;;;;;;7391058;19;20214;-72
2023/01/06 00:23:25;;;;;;;1.63;0.90;;;12.10;99.90;;;;;;7389200;19;20147;-70
2023/01/06 00:25:51;;;;;;;1.43;0.90;;;12.10;99.90;;;;;;7389737;19;20610;-71
2023/01/06 00:28:17;;;;;;;1.63;0.90;;;12.10;99.90;;;;;;7390061;19;20714;-71
2023/01/06 00:30:43;;;;;;;1.30;0.80;;;12.20;99.90;;;;;;7391054;19;20143;-72
2023/01/06 00:33:09;;;;;;;1.33;0.82;;;12.40;99.90;;;;;;7386977;19;20147;-71
2023/01/06 00:35:34;;;;;;;0.93;0.70;;;12.50;99.90;;;;;;7387995;19;20158;-71
2023/01/06 00:38:00;;;;;;;1.20;0.70;;;12.50;99.90;;;;;;7389286;19;20530;-71
2023/01/06 00:40:26;;;;;;;1.23;0.85;;;12.40;99.90;;;;;;7384383;19;20134;-71
2023/01/06 00:42:52;;;;;;;1.27;0.97;;;12.50;99.90;;;;;;7388686;19;20127;-71
2023/01/06 00:45:17;;;;;;;1.65;1.05;;;12.40;99.90;;;;;;7388820;19;20205;-71
2023/01/06 00:47:43;;;;;;;1.60;1.00;;;12.30;99.90;;;;;;7388260;19;20601;-72
2023/01/06 00:50:09;;;;;;;2.92;1.10;;;12.40;99.90;;;;;;7389237;19;20162;-71
2023/01/06 00:52:35;;;;;;;1.35;0.70;;;12.30;99.90;;;;;;7387870;19;20265;-72
2023/01/06 00:55:01;;;;;;;1.17;0.80;;;12.20;99.90;;;;;;7389423;19;20139;-71
2023/01/06 00:57:27;;;;;;;1.20;0.82;;;12.10;99.90;;;;;;7390941;19;20138;-71
2023/01/06 00:59:52;;;;;;;0.88;0.70;;;12.30;99.90;;;;;;7387568;19;20210;-70
2023/01/06 01:02:18;;;;;;;1.33;0.88;;;12.40;99.90;;;;;;7390053;19;20138;-71
2023/01/06 01:04:44;;;;;;;1.15;0.90;;;12.40;99.90;;;;;;7388371;19;20254;-71
2023/01/06 01:07:10;;;;;;;1.38;0.82;;;12.50;99.90;;;;;;7387356;19;20539;-71
2023/01/06 01:09:35;;;;;;;2.13;0.90;;;12.30;99.90;;;;;;7384164;19;20135;-70
2023/01/06 01:12:11;;;;;;;1.17;0.83;;;12.40;99.90;;;;;;7390026;19;20126;-72
2023/01/06 01:14:40;;;;;;;1.87;1.10;;;12.40;99.90;;;;;;7388751;19;20157;-70
2023/01/06 01:17:06;;;;;;;1.80;1.03;;;12.30;99.90;;;;;;7390997;19;20203;-71
2023/01/06 01:19:32;;;;;;;1.15;0.90;;;12.40;99.90;;;;;;7386992;19;20131;-70
2023/01/06 01:21:58;;;;;;;2.35;0.90;;;12.40;99.90;;;;;;7389249;19;20150;-70
2023/01/06 01:24:24;;;;;;;0.80;0.80;;;12.30;99.90;;;;;;7387325;19;20157;-72
2023/01/06 01:26:49;;;;;;;1.40;0.90;;;12.30;99.90;;;;;;7390481;19;20222;-73
2023/01/06 01:29:17;;;;;;;1.63;1.00;;;12.30;99.90;;;;;;7387851;19;20142;-71
2023/01/06 01:31:43;;;;;;;1.67;0.80;;;12.40;99.90;;;;;;7386093;19;20595;-72
2023/01/06 01:34:11;;;;;;;1.47;0.90;;;12.40;99.90;;;;;;7383761;19;20510;-72
2023/01/06 01:36:38;;;;;;;1.83;0.88;;;12.40;99.90;;;;;;7387287;19;20215;-72
2023/01/06 01:39:04;;;;;;;1.30;1.02;;;12.30;99.90;;;;;;7388082;19;20501;-72
2023/01/06 01:41:30;;;;;;;2.73;0.90;;;12.40;99.90;;;;;;7387697;19;20143;-71
2023/01/06 01:43:58;;;;;;;1.80;0.90;;;12.40;99.90;;;;;;7387359;19;20163;-72
2023/01/06 01:46:24;;;;;;;2.43;0.93;;;12.30;99.90;;;;;;7387310;19;20739;-72
2023/01/06 01:48:52;;;;;;;2.63;0.97;;;12.30;99.90;;;;;;7387983;19;20141;-72
2023/01/06 01:51:21;;;;;;;1.83;0.90;;;12.10;99.90;;;;;;7385260;19;20225;-73
2023/01/06 01:53:51;;;;;;;1.60;0.90;;;12.20;99.90;;;;;;7392435;19;20161;-71
2023/01/06 01:56:23;;;;;;;3.33;0.90;;;12.20;99.90;;;;;;7395022;19;20200;-72
2023/01/06 01:59:15;;;;;;;1.80;1.00;;;12.30;99.90;;;;;;7392317;19;20158;-71
2023/01/06 02:01:41;;;;;;;1.00;0.80;;;12.50;99.90;;;;;;7392173;19;20154;-74
2023/01/06 02:04:08;;;;;;;3.13;0.90;;;12.40;99.90;;;;;;7392986;19;20149;-74
2023/01/06 02:06:34;;;;;;;2.37;1.00;;;12.20;99.90;;;;;;7395043;19;20173;-74
2023/01/06 02:09:10;;;;;;;2.90;0.90;;;12.20;99.90;;;;;;7393716;19;20542;-75
2023/01/06 02:11:37;;;;;;;1.20;0.80;;;12.40;99.90;;;;;;7394684;19;20134;-75
2023/01/06 02:14:14;;;;;;;1.10;0.95;;;12.30;99.90;;;;;;7392069;19;20226;-74
2023/01/06 02:16:55;;;;;;;3.78;1.10;;;12.40;99.90;;;;;;7394313;19;20478;-74
2023/01/06 02:19:38;;;;;;;1.93;0.90;;;12.40;99.90;;;;;;7394030;19;20131;-75
2023/01/06 02:22:22;;;;;;;3.00;1.07;;;12.40;99.90;;;;;;7392714;19;20172;-75
2023/01/06 02:25:14;;;;;;;1.02;0.93;;;12.40;99.90;;;;;;7394509;19;20701;-74
2023/01/06 02:28:04;;;;;;;2.92;0.98;;;12.40;99.90;;;;;;7394143;19;20644;-73
2023/01/06 02:30:36;;;;;;;2.40;0.80;;;12.40;99.90;;;;;;7392585;19;20465;-74
2023/01/06 02:33:27;;;;;;;1.45;0.80;;;12.30;99.90;;;;;;7390522;19;20182;-74
2023/01/06 02:36:13;;;;;;;1.33;0.83;;;12.30;99.90;;;;;;7393803;19;20210;-74
2023/01/06 02:38:43;;;;;;;1.73;0.90;;;12.30;99.90;;;;;;7393946;19;20138;-75
2023/01/06 02:41:31;;;;;;;1.83;0.93;;;12.30;99.90;;;;;;7393161;19;20603;-74
2023/01/06 02:44:06;;;;;;;1.83;0.90;;;12.40;99.90;;;;;;7392598;19;20483;-73
2023/01/06 02:46:45;;;;;;;1.80;0.80;;;12.40;99.90;;;;;;7393093;19;20162;-73
2023/01/06 02:49:56;;;;;;;2.63;1.57;;;12.40;99.90;;;;;;7391508;19;20131;-74
2023/01/06 02:52:48;;;;;;;0.70;0.60;;;12.50;99.90;;;;;;7390435;19;20166;-73
2023/01/06 02:55:23;;;;;;;3.13;1.00;;;12.20;99.90;;;;;;7391356;19;20205;-73
2023/01/06 02:58:01;;;;;;;1.95;0.98;;;12.20;99.90;;;;;;7393531;19;20589;-73
2023/01/06 03:00:33;;;;;;;0.90;0.60;;;12.30;99.90;;;;;;7390489;19;20622;-73
2023/01/06 03:03:03;;;;;;;1.75;0.70;;;12.20;99.90;;;;;;7390322;19;20633;-72
2023/01/06 03:05:33;;;;;;;2.03;0.73;;;12.30;99.90;;;;;;7392229;19;20214;-75
2023/01/06 03:08:03;;;;;;;1.03;0.60;;;12.30;99.90;;;;;;7390951;19;20139;-74
2023/01/06 03:10:30;;;;;;;0.83;0.60;;;12.40;99.90;;;;;;7390481;19;20178;-74
2023/01/06 03:13:16;;;;;;;0.73;0.70;;;12.30;99.90;;;;;;7389975;19;20168;-75
2023/01/06 03:15:42;;;;;;;0.77;0.50;;;12.30;99.90;;;;;;7390367;19;20151;-74
2023/01/06 03:18:08;;;;;;;1.00;0.80;;;12.10;99.90;;;;;;7391298;19;20134;-74
2023/01/06 03:20:34;;;;;;;0.93;0.70;;;12.30;99.90;;;;;;7388500;19;20150;-74
2023/01/06 03:23:00;;;;;;;0.68;0.68;;;12.30;99.90;;;;;;7390934;19;20146;-73
2023/01/06 03:25:25;;;;;;;2.42;0.90;;;12.40;99.90;;;;;;7389733;19;20130;-74
2023/01/06 03:27:51;;;;;;;1.97;0.70;;;12.50;99.90;;;;;;7390611;19;20638;-74
2023/01/06 03:30:17;;;;;;;0.63;0.60;;;12.50;99.90;;;;;;7392195;19;20139;-74
2023/01/06 03:33:01;;;;;;;1.95;0.80;;;12.50;99.90;;;;;;7390271;19;20178;-74
2023/01/06 03:35:51;;;;;;;2.57;0.90;;;12.40;99.90;;;;;;7391155;19;20160;-74
2023/01/06 03:38:31;;;;;;;2.03;1.00;;;12.40;99.90;;;;;;7385887;19;20142;-74
2023/01/06 03:41:20;;;;;;;2.53;1.50;;;12.30;99.90;;;;;;7392114;19;20747;-74
2023/01/06 03:43:45;;;;;;;3.50;0.90;;;12.10;99.90;;;;;;7383306;19;20146;-73
2023/01/06 03:46:19;;;;;;;2.38;0.80;;;12.20;99.90;;;;;;7391980;19;20769;-74
2023/01/06 03:48:57;;;;;;;1.20;0.68;;;12.00;99.90;;;;;;7392993;19;20147;-74
2023/01/06 03:51:40;;;;;;;2.10;1.07;;;11.90;99.90;;;;;;7393388;19;20159;-74
2023/01/06 03:54:21;;;;;;;1.00;0.80;;;11.90;99.90;;;;;;7390240;19;20134;-75
2023/01/06 03:56:58;;;;;;;1.73;0.80;;;12.10;99.90;;;;;;7389866;19;20158;-75
2023/01/06 03:59:27;;;;;;;1.00;0.70;;;12.20;99.90;;;;;;7390092;19;20161;-73
2023/01/06 04:01:53;;;;;;;1.83;0.90;;;12.30;99.90;;;;;;7390077;19;20158;-73
2023/01/06 04:04:19;;;;;;;1.42;1.10;;;12.40;99.90;;;;;;7389649;19;20170;-73
2023/01/06 04:06:45;;;;;;;1.40;0.80;;;12.30;99.90;;;;;;7390688;19;20156;-74
2023/01/06 04:09:11;;;;;;;1.85;0.90;;;12.30;99.90;;;;;;7390111;19;20154;-75
2023/01/06 04:14:21;;;;;;;1.13;0.77;;;12.30;99.90;;;;;;7391139;19;20142;-75
2023/01/06 04:16:47;;;;;;;1.02;0.80;;;12.20;99.90;;;;;;7392314;19;20150;-73
2023/01/06 04:19:13;;;;;;;1.73;0.70;;;12.00;99.90;;;;;;7389106;19;20194;-75
2023/01/06 04:21:39;;;;;;;1.02;0.80;;;12.00;99.90;;;;;;7391382;19;20226;-75
2023/01/06 04:24:05;;;;;;;1.43;0.80;;;12.00;99.90;;;;;;7390426;19;20147;-75
2023/01/06 04:26:32;;;;;;;0.90;0.70;;;12.10;99.90;;;;;;7390409;19;20141;-74
2023/01/06 04:28:59;;;;;;;2.23;0.77;;;11.90;99.90;;;;;;7390505;19;20150;-73
2023/01/06 04:31:25;;;;;;;3.70;0.90;;;12.00;99.90;;;;;;7392633;19;20138;-73
2023/01/06 04:33:51;;;;;;;4.10;1.00;;;12.10;99.90;;;;;;7386153;19;20154;-74
2023/01/06 04:36:19;;;;;;;0.67;0.57;;;12.10;99.90;;;;;;7390403;19;20139;-75
2023/01/06 04:38:45;;;;;;;1.10;0.70;;;12.10;99.90;;;;;;7387022;19;20150;-74
2023/01/06 04:41:10;;;;;;;1.73;0.97;;;12.20;99.90;;;;;;7387688;19;20150;-74
2023/01/06 04:43:36;;;;;;;3.17;0.80;;;12.10;99.90;;;;;;7389145;19;20141;-74
2023/01/06 04:46:02;;;;;;;1.23;0.70;;;12.10;99.90;;;;;;7391885;19;20161;-74
2023/01/06 04:48:28;;;;;;;1.13;0.90;;;12.20;99.90;;;;;;7391005;19;20206;-75
2023/01/06 04:51:05;;;;;;;0.77;0.60;;;12.20;99.90;;;;;;7388894;19;20142;-74
2023/01/06 04:53:39;;;;;;;0.87;0.67;;;12.10;99.90;;;;;;7388673;19;20130;-74
2023/01/06 04:56:08;;;;;;;0.97;0.80;;;12.10;99.90;;;;;;7389985;19;20247;-75
2023/01/06 04:58:35;;;;;;;1.83;1.00;;;12.00;99.90;;;;;;7384566;19;20154;-75
2023/01/06 05:01:02;;;;;;;1.77;1.50;;;12.00;99.90;;;;;;7388127;19;20141;-75
2023/01/06 05:03:28;;;;;;;2.03;1.43;;;11.60;99.90;;;;;;7388491;19;20166;-75
2023/01/06 05:05:54;;;;;;;1.97;1.27;;;11.20;99.90;;;;;;7387504;19;20149;-74
2023/01/06 05:08:20;;;;;;;2.30;1.30;;;11.10;99.90;;;;;;7391258;19;20493;-73
2023/01/06 05:10:46;;;;;;;2.13;1.40;;;11.30;99.90;;;;;;7388117;19;20494;-73
2023/01/06 05:13:12;;;;;;;2.10;1.30;;;11.40;99.90;;;;;;7383697;19;20142;-73
2023/01/06 05:15:38;;;;;;;1.30;1.07;;;11.00;99.90;;;;;;7388177;19;20146;-74
2023/01/06 05:18:04;;;;;;;1.33;1.00;;;11.10;99.90;;;;;;7389060;19;20478;-73
2023/01/06 05:20:30;;;;;;;1.70;1.00;;;11.30;99.90;;;;;;7385169;19;20170;-73
2023/01/06 05:22:55;;;;;;;1.67;1.30;;;11.30;99.90;;;;;;7388094;19;20134;-75
2023/01/06 05:25:21;;;;;;;1.75;1.10;;;11.40;99.90;;;;;;7387470;19;20141;-74
2023/01/06 05:27:47;;;;;;;1.77;1.17;;;11.60;99.90;;;;;;7386947;19;20227;-74
2023/01/06 05:30:13;;;;;;;1.73;1.00;;;11.70;99.90;;;;;;7388490;19;20583;-74
2023/01/06 05:32:38;;;;;;;1.00;0.80;;;11.80;99.90;;;;;;7385964;19;20272;-74
2023/01/06 05:35:04;;;;;;;2.70;0.80;;;11.80;99.90;;;;;;7387131;19;20151;-74
2023/01/06 05:37:30;;;;;;;0.93;0.83;;;11.80;99.90;;;;;;7386131;19;20163;-74
2023/01/06 05:39:56;;;;;;;1.07;1.00;;;11.70;99.90;;;;;;7384644;19;20586;-73
2023/01/06 05:42:22;;;;;;;1.67;1.30;;;11.90;99.90;;;;;;7386587;19;20154;-73
2023/01/06 05:44:47;;;;;;;3.93;1.70;;;11.90;99.90;;;;;;7386538;19;20530;-74
2023/01/06 05:47:13;;;;;;;1.50;1.40;;;11.90;99.90;;;;;;7387408;19;20134;-75
2023/01/06 05:49:39;;;;;;;1.83;1.20;;;11.90;99.90;;;;;;7387295;19;20178;-74
2023/01/06 05:52:04;;;;;;;3.07;1.30;;;11.90;99.90;;;;;;7387215;19;20619;-74
2023/01/06 05:54:30;;;;;;;1.83;1.30;;;11.90;99.90;;;;;;7386233;19;20499;-74
2023/01/06 05:56:56;;;;;;;1.53;1.10;;;11.90;99.90;;;;;;7386001;19;20161;-74
2023/01/06 05:59:21;;;;;;;1.00;0.90;;;11.90;99.90;;;;;;7389157;19;20146;-74
2023/01/06 06:01:47;;;;;;;1.23;0.77;;;11.90;99.90;;;;;;7387758;19;20131;-74
2023/01/06 06:04:13;;;;;;;1.07;0.97;;;11.80;99.90;;;;;;7386672;19;20127;-73
2023/01/06 06:06:39;;;;;;;1.10;0.77;;;11.70;99.90;;;;;;7385053;19;20146;-75
2023/01/06 06:09:05;;;;;;;0.70;0.70;;;11.90;99.90;;;;;;7387080;19;20171;-73
2023/01/06 06:11:30;;;;;;;1.10;0.90;;;11.70;99.90;;;;;;7386626;19;20161;-74
2023/01/06 06:13:56;;;;;;;1.70;0.87;;;11.70;99.90;;;;;;7386272;19;20154;-74
2023/01/06 06:16:27;;;;;;;1.10;0.90;;;11.90;99.90;;;;;;7389042;19;20222;-75
2023/01/06 06:18:58;;;;;;;1.47;0.90;;;12.00;99.90;;;;;;7384596;19;20149;-74
2023/01/06 06:21:26;;;;;;;1.77;0.90;;;12.00;99.90;;;;;;7386073;19;20142;-73
2023/01/06 06:23:52;;;;;;;2.80;0.90;;;12.00;99.90;;;;;;7386298;19;20167;-74
2023/01/06 06:26:18;;;;;;;1.20;0.80;;;11.90;99.90;;;;;;7386079;19;20530;-74
2023/01/06 06:28:44;;;;;;;1.10;0.90;;;11.80;99.90;;;;;;7385693;19;20206;-74
2023/01/06 06:31:16;;;;;;;1.33;0.90;;;12.00;99.90;;;;;;7385172;19;20234;-74
2023/01/06 06:33:42;;;;;;;1.27;0.90;;;11.90;99.90;;;;;;7383022;19;20178;-75
2023/01/06 06:36:14;;;;;;;1.93;1.13;;;12.00;99.90;;;;;;7387132;19;20146;-74
2023/01/06 06:38:41;;;;;;;1.10;1.00;;;11.90;99.90;;;;;;7390358;19;20138;-74
2023/01/06 06:41:07;;;;;;;1.50;0.90;;;12.00;99.90;;;;;;7391980;19;20162;-74
2023/01/06 06:43:33;;;;;;;1.80;1.10;;;11.90;99.90;;;;;;7392382;19;20139;-75
2023/01/06 06:45:59;;;;;;;1.23;1.00;;;11.90;99.90;;;;;;7393790;19;20147;-74
2023/01/06 06:48:27;;;;;;;1.17;0.80;;;11.90;99.90;;;;;;7392161;19;20150;-73
2023/01/06 06:51:01;;;;;;;1.00;0.70;;;11.90;99.90;;;;;;7391410;19;20146;-75
2023/01/06 06:53:27;;;;;;;1.10;0.73;;;11.80;99.90;;;;;;7392344;19;20147;-74
2023/01/06 06:55:54;;;;;;;0.90;0.70;;;11.60;99.90;;;;;;7392953;19;20175;-75
2023/01/06 06:58:20;;;;;;;1.90;0.88;;;11.50;99.90;;;;;;7391587;19;20130;-75
2023/01/06 07:00:46;;;;;;;1.93;0.80;;;11.80;99.90;;;;;;7387459;19;20177;-74
2023/01/06 07:03:12;;;;;;;1.17;0.80;;;11.90;99.90;;;;;;7392834;19;20182;-74
2023/01/06 07:05:38;;;;;;;1.13;0.90;;;11.80;99.90;;;;;;7391778;19;20166;-75
2023/01/06 07:08:04;;;;;;;1.27;0.70;;;11.70;99.90;;;;;;7392690;19;20710;-75
2023/01/06 07:10:30;;;;;;;1.60;0.93;;;11.80;99.90;;;;;;7393175;19;20142;-75
2023/01/06 07:12:55;;;;;;;0.97;0.87;;;11.80;99.90;;;;;;7390555;19;20479;-75
2023/01/06 07:15:21;;;;;;;1.60;0.85;;;11.80;99.90;;;;;;7391830;19;20142;-74
2023/01/06 07:17:47;;;;;;;2.23;0.90;;;12.00;99.90;;;;;;7392956;19;20157;-75
2023/01/06 07:20:12;;;;;;;0.60;0.60;;;11.90;99.90;;;;;;7390602;19;20162;-75
2023/01/06 07:22:39;;;;;;;0.83;0.77;;;12.00;99.90;;;;;;7392416;19;20671;-74
2023/01/06 07:25:06;;;;;;;1.33;0.80;;;11.70;99.90;;;;;;7392743;19;20497;-74
2023/01/06 07:27:32;;;;;;;1.20;0.90;;;11.80;99.90;;;;;;7393279;19;20134;-75
2023/01/06 07:29:58;;;;;;;1.10;1.00;;;12.00;99.90;;;;;;7391749;19;20230;-74
2023/01/06 07:32:24;;;;;;;1.07;0.67;;;12.10;99.90;;;;;;7391212;19;20146;-74
2023/01/06 07:34:49;;;;;;;1.07;0.93;;;12.10;99.90;;;;;;7393631;19;20142;-75
2023/01/06 07:37:15;;;;;;;1.00;0.80;;;12.10;99.90;;;;;;7394005;19;20131;-74
2023/01/06 07:39:41;;;;;;;0.73;0.70;;;12.20;99.90;;;;;;7389927;19;20496;-73
2023/01/06 07:42:08;;;;;;;1.97;0.70;;;12.10;99.90;;;;;;7392911;19;20612;-74
2023/01/06 07:44:34;;;;;;;2.70;1.20;;;12.30;99.90;;;;;;7391234;19;20135;-73
2023/01/06 07:47:00;;;;;;;0.97;0.80;;;12.10;99.90;;;;;;7392246;19;20137;-74
2023/01/06 07:49:26;;;;;;;1.47;0.73;;;12.20;99.90;;;;;;7392215;19;20155;-74
2023/01/06 07:51:52;;;;;;;1.83;0.80;;;12.20;99.90;;;;;;7390754;19;20251;-73
2023/01/06 07:54:17;;;;;;;1.80;1.00;;;12.20;99.90;;;;;;7388751;19;20139;-75
2023/01/06 07:56:43;;;;;;;2.17;0.90;;;12.20;99.90;;;;;;7390772;19;20202;-74
2023/01/06 07:59:09;;;;;;;0.83;0.73;;;12.30;99.90;;;;;;7392914;19;20130;-74
2023/01/06 08:01:36;;;;;;;0.53;0.53;;;12.10;99.90;;;;;;7386487;19;20158;-74
2023/01/06 08:04:04;;;;;;;0.90;0.70;;;12.10;99.90;;;;;;7390233;19;20134;-74
2023/01/06 08:06:30;;;;;;;1.13;1.00;;;12.10;99.90;;;;;;7391194;19;20158;-74
2023/01/06 08:08:56;;;;;;;1.00;0.90;;;12.20;99.90;;;;;;7391427;19;20139;-74
2023/01/06 08:11:22;;;;;;;0.90;0.90;;;12.30;99.90;;;;;;7390019;19;20146;-74
2023/01/06 08:13:47;;;;;;;1.20;0.90;;;12.10;99.90;;;;;;7390610;19;20138;-74
2023/01/06 08:16:13;;;;;;;1.23;0.90;;;12.20;99.90;;;;;;7389460;19;20752;-74
2023/01/06 08:18:39;;;;;;;2.07;0.80;;;12.10;99.90;;;;;;7388891;19;20226;-74
2023/01/06 08:21:08;;;;;;;1.50;1.30;;;12.10;99.90;;;;;;7390355;19;20154;-73
2023/01/06 08:23:34;;;;;;;2.07;1.40;;;12.10;99.90;;;;;;7389740;19;20261;-74
2023/01/06 08:26:12;;;;;;;1.00;0.90;;;12.00;99.90;;;;;;7390475;19;20152;-75
2023/01/06 08:28:43;;;;;;;1.10;1.00;;;12.00;99.90;;;;;;7389178;19;20151;-74
2023/01/06 08:31:10;;;;;;;1.30;1.10;;;12.00;99.90;;;;;;7387821;19;20131;-73
2023/01/06 08:33:36;;;;;;;1.40;1.20;;;11.90;99.90;;;;;;7390323;19;20155;-75
2023/01/06 08:36:04;;;;;;;2.07;1.10;;;11.90;99.90;;;;;;7391271;19;20188;-75
2023/01/06 08:38:31;;;;;;;0.77;0.73;;;11.90;99.90;;;;;;7390078;19;20607;-75
2023/01/06 08:41:01;;;;;;;0.83;0.70;;;11.90;99.90;;;;;;7384782;19;20141;-75
2023/01/06 08:43:28;;;;;;;0.73;0.70;;;11.90;99.90;;;;;;7385527;19;20202;-75
2023/01/06 08:45:58;;;;;;;1.20;0.80;;;11.80;99.90;;;;;;7387516;19;20162;-75
2023/01/06 08:48:26;;;;;;;1.17;0.70;;;11.80;99.90;;;;;;7386258;19;20606;-75
2023/01/06 08:50:52;;;;;;;0.90;0.60;;;11.80;99.90;;;;;;7387206;19;20130;-75
2023/01/06 08:53:17;;;;;;;4.00;0.87;;;11.80;99.90;;;;;;7386517;19;20534;-74
2023/01/06 08:55:43;;;;;;;1.43;0.70;;;11.80;99.90;;;;;;7388388;19;20137;-76
2023/01/06 08:58:10;;;;;;;1.80;0.60;;;11.80;99.90;;;;;;7387503;19;20570;-74
2023/01/06 09:00:39;;;;;;;0.80;0.67;;;11.80;99.90;;;;;;7383036;19;20135;-76
2023/01/06 09:03:05;;;;;;;0.90;0.70;;;11.90;99.90;;;;;;7387617;19;20180;-75
2023/01/06 09:05:30;;;;;;;0.83;0.60;;;11.90;99.90;;;;;;7387292;19;20147;-75
2023/01/06 09:07:57;;;;;;;0.63;0.60;;;12.00;99.90;;;;;;7386230;19;20194;-75
2023/01/06 09:10:22;;;;;;;0.50;0.50;;;12.00;99.90;;;;;;7388274;19;20157;-75
2023/01/06 09:12:48;;;;;;;0.80;0.53;;;12.00;99.90;;;;;;7384927;19;20138;-75
2023/01/06 09:15:14;;;;;;;0.57;0.57;;;12.00;99.90;;;;;;7387422;19;20210;-75
2023/01/06 09:17:40;;;;;;;1.57;0.50;;;12.00;99.90;;;;;;7387111;19;20181;-75
2023/01/06 09:20:06;;;;;;;1.63;0.60;;;12.00;99.90;;;;;;7385201;19;20134;-75
2023/01/06 09:22:32;;;;;;;0.50;0.50;;;12.00;99.90;;;;;;7386352;19;20135;-75
2023/01/06 09:24:58;;;;;;;0.67;0.60;;;12.10;99.90;;;;;;7387294;19;20581;-75
2023/01/06 09:27:24;;;;;;;0.80;0.60;;;12.10;99.90;;;;;;7386379;19;20222;-74
2023/01/06 09:29:50;;;;;;;0.77;0.50;;;12.00;99.90;;;;;;7388364;19;20198;-74
2023/01/06 09:32:18;;;;;;;0.53;0.53;;;12.10;99.90;;;;;;7383127;19;20150;-73
2023/01/06 09:34:43;;;;;;;0.50;0.50;;;12.10;99.90;;;;;;7388712;19;20135;-74
2023/01/06 09:37:09;;;;;;;0.50;0.50;;;12.10;99.90;;;;;;7390892;19;20135;-74
2023/01/06 09:39:38;;;;;;;0.93;0.50;;;12.20;99.90;;;;;;7388177;19;20154;-74
2023/01/06 09:42:13;;;;;;;0.50;0.50;;;12.10;99.90;;;;;;7389275;19;20717;-75
2023/01/06 09:44:52;;;;;;;0.63;0.47;;;12.20;99.90;;;;;;7387259;19;20166;-73
2023/01/06 09:47:34;;;;;;;1.00;0.40;;;12.30;99.90;;;;;;7389920;19;20202;-77
2023/01/06 09:50:27;;;;;;;0.93;0.67;;;12.30;99.90;;;;;;7388832;19;20218;-75
2023/01/06 09:53:00;;;;;;;1.33;0.50;;;12.20;99.90;;;;;;7388068;19;20135;-75
2023/01/06 09:55:41;;;;;;;0.70;0.50;;;12.10;99.90;;;;;;7386335;19;20130;-75
2023/01/06 09:58:16;;;;;;;1.60;0.50;;;12.30;99.90;;;;;;7385231;19;20161;-73
2023/01/06 10:00:48;;;;;;;0.70;0.40;;;12.40;99.90;;;;;;7384960;19;20619;-74
2023/01/06 10:03:20;;;;;;;1.13;0.50;;;12.60;99.90;;;;;;7384923;19;20150;-74
2023/01/06 10:05:57;;;;;;;1.05;0.47;;;12.70;99.90;;;;;;7386850;19;20135;-74
2023/01/06 10:08:38;;;;;;;0.40;0.40;;;12.70;99.90;;;;;;7389577;19;20162;-78
2023/01/06 10:11:37;;;;;;;0.50;0.50;;;12.80;99.90;;;;;;7388932;19;20781;-74
2023/01/06 10:14:32;;;;;;;0.50;0.50;;;12.80;99.90;;;;;;7393668;19;20156;-73
2023/01/06 10:17:25;;;;;;;0.60;0.60;;;12.80;99.90;;;;;;7393707;19;20138;-74
2023/01/06 10:20:29;;;;;;;2.07;1.30;;;12.80;99.90;;;;;;7393632;19;20143;-76
2023/01/06 10:22:54;;;;;;;0.63;0.60;;;12.80;99.90;;;;;;7390078;19;20138;-75
2023/01/06 10:25:32;;;;;;;0.88;0.68;;;12.80;99.90;;;;;;7392041;19;20134;-75
2023/01/06 10:28:53;;;;;;;0.93;0.50;;;12.70;99.90;;;;;;7391948;19;20607;-76
2023/01/06 10:31:31;;;;;;;0.50;0.50;;;12.60;99.90;;;;;;7390275;19;20146;-75
2023/01/06 10:33:58;;;;;;;0.43;0.43;;;12.70;99.90;;;;;;7383860;19;20657;-75
2023/01/06 10:36:39;;;;;;;0.63;0.43;;;12.80;99.90;;;;;;7389393;19;20623;-75
2023/01/06 10:39:12;;;;;;;0.53;0.53;;;12.90;99.90;;;;;;7391038;19;20222;-74
2023/01/06 10:41:53;;;;;;;0.83;0.60;;;12.70;99.90;;;;;;7393664;19;20492;-75
2023/01/06 10:44:19;;;;;;;0.67;0.43;;;12.90;99.90;;;;;;7388246;19;20554;-75
2023/01/06 10:46:48;;;;;;;0.40;0.40;;;12.80;99.90;;;;;;7391713;19;20135;-75
2023/01/06 10:49:17;;;;;;;0.40;0.40;;;12.80;99.90;;;;;;7392799;19;20151;-75
2023/01/06 10:51:56;;;;;;;0.55;0.40;;;12.80;99.90;;;;;;7392268;19;20130;-75
2023/01/06 10:54:26;;;;;;;1.63;0.33;;;12.80;99.90;;;;;;7391224;19;20593;-75
2023/01/06 10:57:02;;;;;;;0.30;0.30;;;12.70;99.90;;;;;;7392139;19;20143;-74
2023/01/06 10:59:29;;;;;;;0.30;0.27;;;12.80;99.90;;;;;;7391629;19;20185;-73
2023/01/06 11:01:56;;;;;;;0.40;0.30;;;12.80;99.90;;;;;;7393143;19;20512;-75
2023/01/06 11:04:23;;;;;;;0.30;0.20;;;12.80;99.90;;;;;;7392405;19;20160;-74
2023/01/06 11:06:53;;;;;;;2.13;0.40;;;12.80;99.90;;;;;;7393572;19;20143;-75
2023/01/06 11:09:44;;;;;;;0.47;0.40;;;12.80;99.90;;;;;;7391661;19;20174;-75
2023/01/06 11:12:19;;;;;;;0.43;0.30;;;12.70;99.90;;;;;;7394542;19;20134;-74
2023/01/06 11:15:06;;;;;;;0.75;0.40;;;12.80;99.90;;;;;;7391978;19;20138;-75
2023/01/06 11:17:34;;;;;;;0.33;0.30;;;13.00;99.90;;;;;;7391138;19;20158;-73
2023/01/06 11:20:05;;;;;;;0.38;0.38;;;12.90;99.90;;;;;;7390576;19;20591;-74
2023/01/06 11:22:40;;;;;;;1.70;0.30;;;12.90;99.90;;;;;;7386439;19;20182;-74
2023/01/06 11:25:32;;;;;;;0.52;0.50;;;12.90;99.90;;;;;;7391758;19;20221;-73
2023/01/06 11:28:10;;;;;;;0.63;0.50;;;13.00;99.90;;;;;;7390955;19;20155;-73
2023/01/06 11:30:50;;;;;;;0.43;0.38;;;12.90;99.90;;;;;;7391530;19;20134;-74
2023/01/06 11:33:44;;;;;;;0.47;0.40;;;13.00;99.90;;;;;;7384040;19;20170;-71
2023/01/06 11:36:12;;;;;;;0.40;0.40;;;12.90;99.90;;;;;;7394259;19;20143;-74
2023/01/06 11:38:44;;;;;;;0.40;0.40;;;13.00;99.90;;;;;;7390035;19;20515;-74
2023/01/06 11:41:12;;;;;;;0.40;0.30;;;13.10;99.90;;;;;;7391846;19;20142;-75
2023/01/06 11:43:44;;;;;;;0.40;0.40;;;13.20;99.90;;;;;;7394785;19;20137;-75
2023/01/06 11:46:19;;;;;;;0.20;0.20;;;13.10;99.90;;;;;;7390303;19;20138;-75
2023/01/06 11:48:48;;;;;;;0.95;0.50;;;13.00;99.90;;;;;;7388391;19;20159;-75
2023/01/06 11:51:29;;;;;;;0.60;0.40;;;13.00;99.90;;;;;;7390246;19;20603;-74
2023/01/06 11:53:56;;;;;;;0.38;0.38;;;13.00;99.90;;;;;;7393785;19;20482;-77
2023/01/06 11:56:22;;;;;;;1.80;0.40;;;13.00;99.90;;;;;;7392215;19;20991;-76
2023/01/06 11:59:08;;;;;;;0.40;0.40;;;13.10;99.90;;;;;;7393038;19;20172;-76
2023/01/06 12:01:56;;;;;;;0.77;0.77;;;13.10;99.90;;;;;;7395602;19;20130;-76
2023/01/06 12:04:45;;;;;;;0.30;0.30;;;13.00;99.90;;;;;;7393036;19;20134;-76
2023/01/06 12:07:44;;;;;;;0.35;0.35;;;13.00;99.90;;;;;;7392453;19;20143;-76
2023/01/06 12:10:19;;;;;;;0.65;0.50;;;13.10;99.90;;;;;;7396317;19;20142;-76
2023/01/06 12:12:45;;;;;;;0.50;0.47;;;13.10;99.90;;;;;;7391347;19;20154;-77
2023/01/06 12:15:13;;;;;;;0.52;0.43;;;13.00;99.90;;;;;;7391247;19;20165;-76
2023/01/06 12:17:50;;;;;;;0.40;0.40;;;13.00;99.90;;;;;;7392228;19;20583;-77
2023/01/06 12:20:19;;;;;;;0.85;0.30;;;13.00;99.90;;;;;;7388401;19;20143;-76
2023/01/06 12:22:47;;;;;;;0.50;0.50;;;13.10;99.90;;;;;;7393314;19;20602;-76
2023/01/06 12:25:31;;;;;;;0.40;0.40;;;13.10;99.90;;;;;;7387171;19;20202;-75
2023/01/06 12:28:21;;;;;;;0.50;0.50;;;13.10;99.90;;;;;;7393146;19;20174;-77
2023/01/06 12:30:59;;;;;;;0.30;0.30;;;13.10;99.90;;;;;;7392159;19;20159;-76
2023/01/06 12:33:29;;;;;;;0.38;0.38;;;13.10;99.90;;;;;;7388199;19;20146;-77
2023/01/06 12:35:58;;;;;;;1.80;0.55;;;13.20;99.90;;;;;;7389644;19;20511;-76
2023/01/06 12:38:53;;;;;;;0.88;0.70;;;13.20;99.90;;;;;;7391742;19;20880;-76
2023/01/06 12:41:23;;;;;;;0.70;0.43;;;13.20;99.90;;;;;;7391119;19;20146;-77
2023/01/06 12:44:10;;;;;;;0.82;0.43;;;13.20;99.90;;;;;;7391350;19;20146;-76
2023/01/06 12:46:58;;;;;;;1.37;0.80;;;13.30;99.90;;;;;;7392666;19;20499;-76
2023/01/06 12:49:42;;;;;;;0.97;0.60;;;13.40;99.90;;;;;;7391034;19;20150;-77
2023/01/06 12:52:14;;;;;;;0.57;0.50;;;13.30;99.90;;;;;;7392581;19;20134;-77
2023/01/06 12:54:47;;;;;;;0.70;0.60;;;13.40;99.90;;;;;;7391651;19;20147;-76
2023/01/06 12:57:23;;;;;;;2.85;1.33;;;13.20;99.90;;;;;;7393006;19;20142;-76
2023/01/06 13:00:09;;;;;;;1.27;0.87;;;13.20;99.90;;;;;;7390291;19;20126;-77
2023/01/06 13:03:16;;;;;;;1.47;0.77;;;13.10;99.90;;;;;;7391296;19;20138;-77
2023/01/06 13:06:05;;;;;;;0.73;0.70;;;13.10;99.90;;;;;;7389183;19;20157;-76
2023/01/06 13:08:48;;;;;;;12.68;7.75;;;13.10;99.90;;;;;;7388802;19;20153;-75
2023/01/06 13:11:23;;;;;;;3.13;1.93;;;13.10;99.90;;;;;;7392886;19;20543;-76